createdAt,value
2017-05-31T00:00:11.933Z,41.01
2017-05-31T00:01:11.944Z,41.01
2017-05-31T00:02:12.002Z,41.1
2017-05-31T00:03:11.961Z,41.69
2017-05-31T00:04:11.973Z,41.86
2017-05-31T00:05:11.981Z,41.28
2017-05-31T00:06:11.996Z,41.69
2017-05-31T00:07:12.006Z,41.2
2017-05-31T00:08:12.014Z,41.59
2017-05-31T00:09:11.713Z,41.78
2017-05-31T00:10:12.031Z,41.28
2017-05-31T00:11:12.045Z,41.39
2017-05-31T00:12:11.743Z,41.3
2017-05-31T00:13:12.114Z,41.1
2017-05-31T00:14:11.763Z,41.49
2017-05-31T00:15:12.086Z,41.2
2017-05-31T00:16:12.092Z,41.59
2017-05-31T00:17:12.152Z,41.1
2017-05-31T00:18:11.851Z,41.86
2017-05-31T00:19:12.126Z,41.78
2017-05-31T00:20:12.182Z,41.47
2017-05-31T00:21:12.141Z,41.78
2017-05-31T00:22:12.154Z,41.18
2017-05-31T00:23:12.164Z,41.78
2017-05-31T00:24:12.172Z,41.59
2017-05-31T00:25:12.232Z,41.77
2017-05-31T00:26:12.195Z,41.96
2017-05-31T00:27:12.201Z,41.69
2017-05-31T00:28:12.213Z,41.67
2017-05-31T00:29:12.224Z,41.08
2017-05-31T00:30:12.234Z,41.38
2017-05-31T00:31:12.299Z,41.86
2017-05-31T00:32:12.253Z,41.59
2017-05-31T00:33:12.264Z,41.49
2017-05-31T00:34:12.277Z,41.96
2017-05-31T00:35:12.280Z,42.27
2017-05-31T00:36:12.294Z,41.96
2017-05-31T00:37:12.354Z,41.88
2017-05-31T00:38:12.320Z,41.86
2017-05-31T00:39:12.322Z,42.25
2017-05-31T00:40:12.025Z,41.69
2017-05-31T00:41:12.345Z,42.05
2017-05-31T00:42:12.355Z,42.27
2017-05-31T00:43:12.364Z,42.18
2017-05-31T00:44:12.113Z,41.96
2017-05-31T00:45:12.077Z,42.27
2017-05-31T00:46:12.393Z,41.78
2017-05-31T00:47:12.403Z,41.78
2017-05-31T00:48:12.413Z,42.35
2017-05-31T00:49:12.474Z,41.86
2017-05-31T00:50:12.433Z,41.77
2017-05-31T00:51:12.495Z,41.57
2017-05-31T00:52:12.140Z,41.08
2017-05-31T00:53:12.464Z,42.66
2017-05-31T00:54:12.473Z,42.18
2017-05-31T00:55:12.173Z,42.05
2017-05-31T00:56:12.185Z,41.67
2017-05-31T00:57:12.505Z,41.86
2017-05-31T00:58:12.517Z,41.28
2017-05-31T00:59:12.524Z,41.78
2017-05-31T01:00:12.534Z,41.77
2017-05-31T01:01:12.592Z,41.3
2017-05-31T01:02:12.555Z,41.86
2017-05-31T01:03:12.565Z,42.05
2017-05-31T01:04:12.573Z,41.57
2017-05-31T01:05:12.585Z,41.96
2017-05-31T01:06:12.597Z,41.18
2017-05-31T01:07:12.604Z,41.88
2017-05-31T01:08:12.663Z,41.69
2017-05-31T01:09:12.624Z,41.86
2017-05-31T01:10:12.332Z,41.47
2017-05-31T01:11:12.646Z,41.86
2017-05-31T01:12:12.345Z,41.38
2017-05-31T01:13:12.354Z,41.67
2017-05-31T01:14:12.365Z,41.18
2017-05-31T01:15:12.738Z,41.86
2017-05-31T01:16:12.744Z,41.18
2017-05-31T01:17:12.705Z,41.28
2017-05-31T01:18:12.716Z,41.67
2017-05-31T01:19:12.723Z,41.96
2017-05-31T01:20:12.784Z,41.47
2017-05-31T01:21:12.746Z,41.38
2017-05-31T01:22:12.751Z,41.67
2017-05-31T01:23:12.505Z,41.86
2017-05-31T01:24:12.824Z,41.86
2017-05-31T01:25:12.784Z,41.86
2017-05-31T01:26:12.848Z,41.38
2017-05-31T01:27:12.802Z,41.77
2017-05-31T01:28:12.815Z,41.96
2017-05-31T01:29:12.823Z,41.77
2017-05-31T01:30:12.523Z,42.54
2017-05-31T01:31:12.844Z,41.77
2017-05-31T01:32:12.855Z,41.96
2017-05-31T01:33:13.164Z,41.86
2017-05-31T01:34:13.172Z,41.67
2017-05-31T01:35:12.883Z,41.57
2017-05-31T01:36:12.893Z,41.77
2017-05-31T01:37:12.913Z,41.18
2017-05-31T01:38:12.604Z,41.67
2017-05-31T01:39:12.924Z,41.38
2017-05-31T01:40:12.942Z,41.38
2017-05-31T01:41:12.687Z,41.18
2017-05-31T01:42:12.954Z,41.47
2017-05-31T01:43:12.963Z,41.86
2017-05-31T01:44:12.977Z,41.77
2017-05-31T01:45:12.984Z,41.67
2017-05-31T01:46:12.995Z,41.28
2017-05-31T01:47:13.055Z,41.67
2017-05-31T01:48:13.062Z,41.08
2017-05-31T01:49:13.022Z,41.47
2017-05-31T01:50:12.722Z,41.86
2017-05-31T01:51:13.043Z,41.86
2017-05-31T01:52:12.741Z,41.47
2017-05-31T01:53:12.753Z,41.96
2017-05-31T01:54:13.073Z,41.18
2017-05-31T01:55:13.082Z,41.86
2017-05-31T01:56:12.833Z,41.86
2017-05-31T01:57:13.101Z,41.96
2017-05-31T01:58:13.113Z,41.67
2017-05-31T01:59:13.121Z,41.38
2017-05-31T02:00:13.132Z,41.77
2017-05-31T02:01:13.143Z,41.08
2017-05-31T02:02:13.154Z,41.77
2017-05-31T02:03:13.162Z,41.86
2017-05-31T02:04:13.172Z,41.57
2017-05-31T02:05:13.182Z,41.86
2017-05-31T02:06:13.242Z,41.28
2017-05-31T02:07:13.202Z,41.67
2017-05-31T02:08:12.951Z,41.67
2017-05-31T02:09:13.223Z,41.18
2017-05-31T02:10:13.232Z,41.86
2017-05-31T02:11:13.243Z,41.38
2017-05-31T02:12:13.302Z,41.86
2017-05-31T02:13:12.952Z,41.86
2017-05-31T02:14:13.272Z,41.77
2017-05-31T02:15:12.969Z,41.67
2017-05-31T02:16:13.390Z,41.57
2017-05-31T02:17:13.305Z,41.67
2017-05-31T02:18:13.309Z,41.67
2017-05-31T02:19:13.321Z,41.57
2017-05-31T02:20:13.384Z,41.18
2017-05-31T02:21:13.338Z,41.28
2017-05-31T02:22:13.351Z,41.77
2017-05-31T02:23:18.302Z,41.18
2017-05-31T02:24:13.062Z,41.28
2017-05-31T02:25:13.433Z,41.47
2017-05-31T02:26:13.391Z,41.57
2017-05-31T02:27:13.448Z,41.47
2017-05-31T02:28:13.460Z,41.26
2017-05-31T02:29:13.419Z,41.86
2017-05-31T02:30:13.429Z,41.67
2017-05-31T02:31:13.181Z,41.77
2017-05-31T02:32:13.449Z,41.67
2017-05-31T02:33:13.463Z,41.57
2017-05-31T02:34:13.472Z,41.28
2017-05-31T02:35:13.482Z,41.77
2017-05-31T02:36:13.491Z,41.86
2017-05-31T02:37:13.552Z,41.86
2017-05-31T02:38:13.559Z,41.77
2017-05-31T02:39:13.569Z,41.47
2017-05-31T02:40:13.583Z,41.18
2017-05-31T02:41:13.227Z,41.57
2017-05-31T02:42:13.237Z,41.38
2017-05-31T02:43:13.245Z,41.67
2017-05-31T02:44:13.255Z,41.96
2017-05-31T02:45:13.317Z,41.47
2017-05-31T02:46:13.588Z,41.28
2017-05-31T02:47:13.597Z,41.18
2017-05-31T02:48:13.295Z,41.57
2017-05-31T02:49:13.615Z,41.67
2017-05-31T02:50:13.314Z,41.67
2017-05-31T02:51:13.638Z,41.77
2017-05-31T02:52:13.338Z,41.38
2017-05-31T02:53:13.655Z,41.57
2017-05-31T02:54:13.666Z,41.18
2017-05-31T02:55:13.676Z,41.47
2017-05-31T02:56:13.736Z,41.38
2017-05-31T02:57:13.698Z,41.57
2017-05-31T02:58:13.393Z,41.57
2017-05-31T02:59:13.714Z,41.47
2017-05-31T03:00:13.415Z,41.47
2017-05-31T03:01:13.734Z,41.38
2017-05-31T03:02:13.746Z,41.08
2017-05-31T03:03:13.448Z,41.57
2017-05-31T03:04:13.764Z,41.67
2017-05-31T03:05:13.773Z,41.47
2017-05-31T03:06:13.471Z,41.86
2017-05-31T03:07:13.480Z,41.67
2017-05-31T03:08:13.803Z,41.67
2017-05-31T03:09:13.910Z,41.28
2017-05-31T03:10:13.824Z,41.36
2017-05-31T03:11:13.521Z,41.47
2017-05-31T03:12:13.530Z,41.67
2017-05-31T03:13:13.849Z,41.67
2017-05-31T03:14:13.910Z,41.67
2017-05-31T03:15:13.871Z,40.99
2017-05-31T03:16:13.879Z,41.67
2017-05-31T03:17:13.587Z,41.57
2017-05-31T03:18:13.588Z,41.47
2017-05-31T03:19:13.609Z,40.97
2017-05-31T03:20:13.606Z,41.47
2017-05-31T03:21:13.928Z,41.67
2017-05-31T03:22:13.627Z,41.47
2017-05-31T03:23:13.949Z,41.38
2017-05-31T03:24:13.646Z,41.67
2017-05-31T03:25:13.656Z,41.57
2017-05-31T03:26:13.976Z,40.89
2017-05-31T03:27:13.986Z,41.08
2017-05-31T03:28:13.998Z,41.67
2017-05-31T03:29:13.694Z,40.89
2017-05-31T03:30:13.758Z,41.28
2017-05-31T03:31:13.715Z,41.38
2017-05-31T03:32:14.083Z,40.99
2017-05-31T03:33:13.733Z,41.38
2017-05-31T03:34:13.744Z,41.47
2017-05-31T03:35:14.067Z,41.57
2017-05-31T03:36:14.075Z,41.18
2017-05-31T03:37:14.084Z,41.28
2017-05-31T03:38:13.780Z,41.47
2017-05-31T03:39:14.100Z,40.89
2017-05-31T03:40:14.261Z,40.79
2017-05-31T03:41:14.172Z,41.67
2017-05-31T03:42:14.132Z,41.18
2017-05-31T03:43:14.140Z,41.28
2017-05-31T03:44:14.151Z,41.57
2017-05-31T03:45:14.161Z,41.47
2017-05-31T03:46:14.171Z,41.57
2017-05-31T03:47:13.929Z,41.57
2017-05-31T03:48:13.933Z,41.47
2017-05-31T03:49:14.202Z,41.08
2017-05-31T03:50:14.210Z,41.18
2017-05-31T03:51:14.220Z,41.28
2017-05-31T03:52:13.918Z,41.18
2017-05-31T03:53:14.238Z,41.38
2017-05-31T03:54:13.939Z,41.28
2017-05-31T03:55:14.260Z,41.38
2017-05-31T03:56:14.266Z,41.08
2017-05-31T03:57:14.277Z,41.38
2017-05-31T03:58:13.975Z,41.47
2017-05-31T03:59:14.294Z,40.99
2017-05-31T04:00:14.308Z,41.38
2017-05-31T04:01:14.318Z,40.11
2017-05-31T04:02:14.327Z,40.89
2017-05-31T04:03:14.026Z,41.38
2017-05-31T04:04:14.343Z,41.57
2017-05-31T04:05:14.355Z,41.38
2017-05-31T04:06:14.418Z,40.21
2017-05-31T04:07:14.374Z,41.57
2017-05-31T04:08:14.073Z,40.79
2017-05-31T04:09:14.394Z,40.69
2017-05-31T04:10:14.094Z,41.28
2017-05-31T04:11:14.416Z,41.39
2017-05-31T04:12:14.164Z,41.18
2017-05-31T04:13:14.434Z,40.99
2017-05-31T04:14:14.443Z,40.89
2017-05-31T04:15:14.452Z,41.08
2017-05-31T04:16:14.466Z,41.18
2017-05-31T04:17:14.474Z,41.18
2017-05-31T04:18:14.173Z,40.91
2017-05-31T04:19:14.185Z,40.79
2017-05-31T04:20:14.555Z,40.89
2017-05-31T04:21:14.514Z,40.62
2017-05-31T04:22:14.523Z,40.72
2017-05-31T04:23:14.584Z,40.72
2017-05-31T04:24:14.544Z,40.62
2017-05-31T04:25:14.553Z,40.33
2017-05-31T04:26:14.565Z,40.42
2017-05-31T04:27:14.585Z,40.52
2017-05-31T04:28:14.276Z,40.42
2017-05-31T04:29:14.591Z,40.52
2017-05-31T04:30:14.654Z,40.52
2017-05-31T04:31:14.610Z,40.52
2017-05-31T04:32:14.669Z,40.62
2017-05-31T04:33:14.679Z,40.42
2017-05-31T04:34:14.647Z,40.33
2017-05-31T04:35:14.703Z,40.33
2017-05-31T04:36:14.351Z,40.23
2017-05-31T04:37:14.672Z,39.84
2017-05-31T04:38:14.683Z,39.94
2017-05-31T04:39:14.690Z,39.84
2017-05-31T04:40:14.702Z,39.96
2017-05-31T04:41:14.721Z,40.03
2017-05-31T04:42:14.722Z,39.94
2017-05-31T04:43:14.421Z,39.94
2017-05-31T04:44:14.742Z,39.96
2017-05-31T04:45:14.754Z,39.94
2017-05-31T04:46:14.765Z,39.96
2017-05-31T04:47:14.771Z,40.15
2017-05-31T04:48:14.471Z,40.34
2017-05-31T04:49:14.483Z,40.06
2017-05-31T04:50:14.493Z,40.23
2017-05-31T04:51:14.813Z,40.13
2017-05-31T04:52:14.823Z,40.15
2017-05-31T04:53:14.834Z,40.42
2017-05-31T04:54:14.532Z,40.62
2017-05-31T04:55:14.854Z,40.42
2017-05-31T04:56:14.863Z,41.01
2017-05-31T04:57:14.922Z,40.52
2017-05-31T04:58:14.885Z,41.2
2017-05-31T04:59:14.944Z,41.3
2017-05-31T05:00:14.905Z,41.3
2017-05-31T05:01:14.914Z,40.72
2017-05-31T05:02:14.923Z,40.52
2017-05-31T05:03:14.985Z,41.2
2017-05-31T05:04:14.632Z,41.01
2017-05-31T05:05:14.955Z,41.2
2017-05-31T05:06:14.962Z,41.1
2017-05-31T05:07:14.974Z,41.3
2017-05-31T05:08:14.982Z,40.33
2017-05-31T05:09:14.993Z,40.33
2017-05-31T05:10:15.002Z,41.49
2017-05-31T05:11:14.756Z,41.3
2017-05-31T05:12:15.025Z,41.3
2017-05-31T05:13:15.037Z,41.3
2017-05-31T05:14:15.044Z,41.39
2017-05-31T05:15:15.056Z,41.3
2017-05-31T05:16:14.756Z,41.49
2017-05-31T05:17:14.762Z,41.49
2017-05-31T05:18:14.775Z,41.59
2017-05-31T05:19:14.785Z,41.39
2017-05-31T05:20:15.105Z,41.39
2017-05-31T05:21:15.113Z,41.59
2017-05-31T05:22:15.125Z,41.39
2017-05-31T05:23:14.823Z,41.3
2017-05-31T05:24:14.832Z,41.39
2017-05-31T05:25:15.154Z,41.49
2017-05-31T05:26:15.166Z,41.49
2017-05-31T05:27:15.183Z,41.49
2017-05-31T05:28:14.875Z,41.39
2017-05-31T05:29:15.192Z,41.3
2017-05-31T05:30:15.256Z,41.49
2017-05-31T05:31:15.213Z,41.3
2017-05-31T05:32:14.913Z,41.49
2017-05-31T05:33:15.240Z,41.59
2017-05-31T05:34:15.243Z,41.01
2017-05-31T05:35:15.305Z,41.3
2017-05-31T05:36:14.952Z,41.3
2017-05-31T05:37:15.280Z,41.69
2017-05-31T05:38:15.398Z,41.59
2017-05-31T05:39:15.294Z,41.3
2017-05-31T05:40:15.303Z,41.39
2017-05-31T05:41:15.314Z,41.49
2017-05-31T05:42:15.013Z,40.23
2017-05-31T05:43:15.339Z,41.2
2017-05-31T05:44:15.345Z,41.69
2017-05-31T05:45:15.043Z,41.2
2017-05-31T05:46:15.416Z,41.39
2017-05-31T05:47:15.063Z,41.39
2017-05-31T05:48:15.435Z,40.62
2017-05-31T05:49:15.395Z,41.39
2017-05-31T05:50:15.454Z,41.3
2017-05-31T05:51:15.414Z,41.3
2017-05-31T05:52:15.424Z,41.69
2017-05-31T05:53:15.434Z,41.3
2017-05-31T05:54:15.445Z,40.62
2017-05-31T05:55:15.455Z,41.01
2017-05-31T05:56:15.465Z,41.2
2017-05-31T05:57:15.474Z,40.91
2017-05-31T05:58:15.485Z,41.49
2017-05-31T05:59:15.494Z,40.72
2017-05-31T06:00:15.504Z,41.39
2017-05-31T06:01:15.516Z,41.2
2017-05-31T06:02:15.526Z,41.39
2017-05-31T06:03:15.586Z,41.3
2017-05-31T06:04:15.231Z,41.2
2017-05-31T06:05:15.603Z,41.39
2017-05-31T06:06:15.561Z,41.3
2017-05-31T06:07:15.264Z,41.3
2017-05-31T06:08:15.272Z,41.3
2017-05-31T06:09:15.282Z,40.81
2017-05-31T06:10:15.297Z,41.01
2017-05-31T06:11:15.303Z,41.3
2017-05-31T06:12:15.314Z,40.81
2017-05-31T06:13:15.634Z,41.1
2017-05-31T06:14:15.690Z,40.91
2017-05-31T06:15:15.653Z,40.81
2017-05-31T06:16:15.352Z,40.52
2017-05-31T06:17:15.363Z,40.72
2017-05-31T06:18:15.682Z,40.91
2017-05-31T06:19:15.694Z,40.81
2017-05-31T06:20:15.391Z,40.91
2017-05-31T06:21:15.453Z,41.2
2017-05-31T06:22:15.724Z,41.3
2017-05-31T06:23:15.423Z,41.39
2017-05-31T06:24:15.747Z,40.72
2017-05-31T06:25:15.753Z,41.3
2017-05-31T06:26:15.451Z,40.72
2017-05-31T06:27:15.825Z,41.59
2017-05-31T06:28:15.473Z,41.69
2017-05-31T06:29:15.796Z,41.59
2017-05-31T06:30:15.854Z,41.1
2017-05-31T06:31:15.504Z,40.62
2017-05-31T06:32:15.926Z,40.42
2017-05-31T06:33:15.834Z,41.39
2017-05-31T06:34:15.893Z,41.2
2017-05-31T06:35:15.861Z,41.3
2017-05-31T06:36:15.865Z,41.2
2017-05-31T06:37:15.615Z,41.3
2017-05-31T06:38:16.186Z,40.52
2017-05-31T06:39:15.945Z,40.62
2017-05-31T06:40:15.595Z,41.3
2017-05-31T06:41:15.605Z,41.1
2017-05-31T06:42:15.613Z,41.3
2017-05-31T06:43:15.673Z,41.2
2017-05-31T06:44:15.942Z,41.1
2017-05-31T06:45:15.951Z,41.59
2017-05-31T06:46:15.962Z,41.3
2017-05-31T06:47:15.978Z,40.13
2017-05-31T06:48:15.986Z,41.1
2017-05-31T06:49:15.992Z,40.79
2017-05-31T06:50:16.004Z,40.23
2017-05-31T06:51:16.011Z,41.01
2017-05-31T06:52:16.022Z,40.79
2017-05-31T06:53:16.032Z,40.69
2017-05-31T06:54:16.057Z,40.6
2017-05-31T06:55:16.053Z,40.41
2017-05-31T06:56:16.065Z,40.5
2017-05-31T06:57:15.777Z,40.5
2017-05-31T06:58:15.772Z,40.33
2017-05-31T06:59:16.091Z,40.11
2017-05-31T07:00:16.104Z,40.21
2017-05-31T07:01:16.114Z,40.03
2017-05-31T07:02:15.810Z,40.03
2017-05-31T07:03:16.129Z,40.23
2017-05-31T07:04:16.141Z,40.21
2017-05-31T07:05:16.154Z,40.01
2017-05-31T07:06:16.225Z,40.21
2017-05-31T07:07:16.169Z,39.84
2017-05-31T07:08:16.230Z,39.94
2017-05-31T07:09:16.237Z,39.94
2017-05-31T07:10:16.198Z,39.82
2017-05-31T07:11:15.901Z,39.92
2017-05-31T07:12:16.221Z,40.31
2017-05-31T07:13:16.578Z,39.84
2017-05-31T07:14:15.927Z,40.33
2017-05-31T07:15:15.938Z,40.03
2017-05-31T07:16:15.946Z,40.03
2017-05-31T07:17:15.957Z,40.23
2017-05-31T07:18:16.291Z,39.94
2017-05-31T07:19:16.339Z,39.94
2017-05-31T07:20:16.302Z,39.94
2017-05-31T07:21:16.306Z,39.84
2017-05-31T07:22:16.317Z,39.84
2017-05-31T07:23:16.378Z,39.65
2017-05-31T07:24:16.337Z,40.13
2017-05-31T07:25:16.399Z,40.23
2017-05-31T07:26:16.356Z,40.33
2017-05-31T07:27:16.368Z,40.42
2017-05-31T07:28:16.115Z,40.13
2017-05-31T07:29:16.077Z,40.25
2017-05-31T07:30:16.446Z,39.67
2017-05-31T07:31:16.407Z,38.5
2017-05-31T07:32:16.413Z,34.76
2017-05-31T07:33:16.426Z,31.26
2017-05-31T07:34:16.435Z,29.85
2017-05-31T07:35:16.450Z,28.72
2017-05-31T07:36:16.147Z,28.65
2017-05-31T07:37:16.475Z,27.67
2017-05-31T07:38:16.165Z,27.19
2017-05-31T07:39:16.490Z,27.6
2017-05-31T07:40:16.513Z,28.57
2017-05-31T07:41:16.512Z,31.17
2017-05-31T07:42:16.521Z,34.42
2017-05-31T07:43:16.531Z,36.57
2017-05-31T07:44:16.592Z,37.12
2017-05-31T07:45:16.552Z,37.68
2017-05-31T07:46:16.561Z,37.29
2017-05-31T07:47:16.572Z,36.82
2017-05-31T07:48:16.584Z,34.03
2017-05-31T07:49:16.594Z,32.03
2017-05-31T07:51:16.615Z,31.49
2017-05-31T07:52:16.624Z,31.78
2017-05-31T07:53:16.634Z,31.68
2017-05-31T07:54:16.645Z,32.66
2017-05-31T07:55:16.656Z,34.38
2017-05-31T07:56:16.719Z,35.61
2017-05-31T07:57:16.676Z,36.74
2017-05-31T07:58:16.736Z,36.72
2017-05-31T07:59:16.698Z,36.72
2017-05-31T08:00:16.710Z,36.82
2017-05-31T08:01:16.718Z,36.72
2017-05-31T08:02:16.417Z,37.29
2017-05-31T08:03:16.741Z,37.58
2017-05-31T08:04:16.750Z,37.97
2017-05-31T08:05:16.760Z,38.36
2017-05-31T08:06:16.768Z,38.07
2017-05-31T08:07:16.778Z,37.39
2017-05-31T08:08:16.788Z,37.19
2017-05-31T08:09:16.852Z,37.68
2017-05-31T08:10:16.812Z,37.48
2017-05-31T08:11:16.860Z,38.17
2017-05-31T08:12:16.568Z,38.07
2017-05-31T08:13:16.529Z,38.46
2017-05-31T08:14:16.541Z,38.17
2017-05-31T08:15:16.548Z,38.56
2017-05-31T08:16:16.871Z,38.75
2017-05-31T08:17:16.571Z,38.93
2017-05-31T08:18:16.582Z,38.83
2017-05-31T08:19:16.589Z,38.73
2017-05-31T08:20:16.912Z,39.03
2017-05-31T08:21:16.611Z,39.03
2017-05-31T08:22:16.984Z,38.93
2017-05-31T08:23:16.631Z,38.83
2017-05-31T08:24:16.955Z,39.03
2017-05-31T08:25:17.025Z,38.93
2017-05-31T08:26:16.970Z,39.03
2017-05-31T08:27:16.983Z,38.83
2017-05-31T08:28:16.992Z,38.83
2017-05-31T08:29:17.003Z,38.93
2017-05-31T08:30:17.015Z,38.93
2017-05-31T08:31:16.712Z,38.93
2017-05-31T08:32:17.034Z,39
2017-05-31T08:33:17.043Z,38.93
2017-05-31T08:34:17.054Z,38.93
2017-05-31T08:35:17.065Z,39.03
2017-05-31T08:36:16.764Z,39.03
2017-05-31T08:37:16.774Z,39.03
2017-05-31T08:38:17.095Z,39.39
2017-05-31T08:39:17.120Z,39.51
2017-05-31T08:40:17.115Z,39.8
2017-05-31T08:41:17.126Z,39.22
2017-05-31T08:42:17.138Z,39.22
2017-05-31T08:43:17.145Z,39.41
2017-05-31T08:44:17.208Z,39.41
2017-05-31T08:45:17.167Z,39.04
2017-05-31T08:46:16.865Z,39.04
2017-05-31T08:47:16.876Z,38.95
2017-05-31T08:48:16.886Z,38.95
2017-05-31T08:49:17.207Z,39.34
2017-05-31T08:50:17.220Z,39.78
2017-05-31T08:51:17.229Z,40.08
2017-05-31T08:52:16.927Z,39.59
2017-05-31T08:53:17.248Z,39.9
2017-05-31T08:54:16.949Z,39.29
2017-05-31T08:55:17.570Z,39.29
2017-05-31T08:56:16.969Z,39.2
2017-05-31T08:57:17.342Z,39.39
2017-05-31T08:58:17.298Z,39.31
2017-05-31T08:59:17.309Z,39.41
2017-05-31T09:00:17.321Z,39.31
2017-05-31T09:01:17.330Z,39.41
2017-05-31T09:02:17.339Z,40.08
2017-05-31T09:03:17.037Z,40.44
2017-05-31T09:04:17.414Z,40.15
2017-05-31T09:05:17.431Z,41.01
2017-05-31T09:06:17.117Z,40.06
2017-05-31T09:07:17.389Z,40.34
2017-05-31T09:08:17.399Z,40.34
2017-05-31T09:09:17.459Z,40.06
2017-05-31T09:10:17.418Z,40.08
2017-05-31T09:11:17.433Z,40.27
2017-05-31T09:12:17.438Z,40.08
2017-05-31T09:13:17.448Z,40.73
2017-05-31T09:14:17.459Z,40.44
2017-05-31T09:15:17.206Z,40.06
2017-05-31T09:16:17.216Z,40.34
2017-05-31T09:17:17.485Z,40.54
2017-05-31T09:18:17.546Z,40.44
2017-05-31T09:19:17.197Z,40.54
2017-05-31T09:20:17.525Z,41.49
2017-05-31T09:21:17.525Z,41.32
2017-05-31T09:22:17.535Z,41.32
2017-05-31T09:23:17.546Z,41.42
2017-05-31T09:24:17.556Z,41.49
2017-05-31T09:25:17.566Z,41.22
2017-05-31T09:26:17.575Z,40.93
2017-05-31T09:27:17.274Z,41.03
2017-05-31T09:28:17.594Z,40.25
2017-05-31T09:29:17.602Z,40.15
2017-05-31T09:30:17.621Z,40.66
2017-05-31T09:31:17.673Z,40.56
2017-05-31T09:32:17.631Z,40.56
2017-05-31T09:33:17.642Z,40.93
2017-05-31T09:34:17.651Z,41.2
2017-05-31T09:35:17.350Z,41.49
2017-05-31T09:36:17.673Z,41.51
2017-05-31T09:37:17.683Z,41.03
2017-05-31T09:38:17.690Z,41.22
2017-05-31T09:39:17.701Z,40.64
2017-05-31T09:40:17.399Z,40.83
2017-05-31T09:41:17.411Z,41.13
2017-05-31T09:42:17.731Z,40.83
2017-05-31T09:43:17.738Z,40.54
2017-05-31T09:44:17.440Z,41.03
2017-05-31T09:45:17.758Z,40.34
2017-05-31T09:46:17.465Z,40.93
2017-05-31T09:47:17.781Z,41.22
2017-05-31T09:48:17.794Z,41.32
2017-05-31T09:49:17.801Z,41.1
2017-05-31T09:50:17.810Z,40.72
2017-05-31T09:51:17.507Z,40.73
2017-05-31T09:52:17.837Z,40.54
2017-05-31T09:53:17.526Z,40.27
2017-05-31T09:54:17.850Z,39.98
2017-05-31T09:55:17.547Z,39.98
2017-05-31T09:56:17.868Z,40.47
2017-05-31T09:57:17.880Z,40.83
2017-05-31T09:58:17.886Z,40.93
2017-05-31T09:59:17.945Z,41.71
2017-05-31T10:00:17.916Z,41.51
2017-05-31T10:01:17.603Z,41.03
2017-05-31T10:02:17.975Z,41.42
2017-05-31T10:03:17.932Z,41.42
2017-05-31T10:04:17.995Z,41.05
2017-05-31T10:05:18.006Z,41.32
2017-05-31T10:06:17.964Z,40.83
2017-05-31T10:07:17.981Z,40.56
2017-05-31T10:08:17.983Z,40.68
2017-05-31T10:09:17.994Z,40.66
2017-05-31T10:10:17.693Z,40.17
2017-05-31T10:11:18.014Z,40.09
2017-05-31T10:12:17.711Z,40.09
2017-05-31T10:13:18.024Z,40.29
2017-05-31T10:14:17.734Z,40.48
2017-05-31T10:15:18.105Z,40.37
2017-05-31T10:16:18.063Z,40.56
2017-05-31T10:17:17.763Z,40.27
2017-05-31T10:18:18.131Z,40.09
2017-05-31T10:19:18.092Z,40.27
2017-05-31T10:20:18.101Z,39.88
2017-05-31T10:21:18.115Z,40.17
2017-05-31T10:22:18.121Z,40.08
2017-05-31T10:23:18.133Z,40.47
2017-05-31T10:24:17.832Z,40.47
2017-05-31T10:25:18.153Z,40.56
2017-05-31T10:26:17.850Z,40.27
2017-05-31T10:27:18.171Z,39.88
2017-05-31T10:28:18.235Z,39.41
2017-05-31T10:29:17.929Z,39.41
2017-05-31T10:30:17.890Z,39.31
2017-05-31T10:31:18.212Z,39.49
2017-05-31T10:32:18.338Z,39.29
2017-05-31T10:33:18.289Z,39.51
2017-05-31T10:34:17.949Z,39.7
2017-05-31T10:35:18.250Z,39.41
2017-05-31T10:36:18.261Z,39.31
2017-05-31T10:37:18.271Z,39.41
2017-05-31T10:38:18.280Z,39.2
2017-05-31T10:39:17.981Z,39.49
2017-05-31T10:40:18.304Z,39.59
2017-05-31T10:41:18.000Z,39.59
2017-05-31T10:42:18.320Z,39.59
2017-05-31T10:43:18.335Z,38.91
2017-05-31T10:44:18.339Z,39.2
2017-05-31T10:45:18.400Z,38.91
2017-05-31T10:46:18.358Z,38.91
2017-05-31T10:47:18.365Z,38.91
2017-05-31T10:48:18.064Z,39
2017-05-31T10:49:18.383Z,38.91
2017-05-31T10:50:18.408Z,39
2017-05-31T10:51:18.147Z,38.64
2017-05-31T10:52:18.107Z,39
2017-05-31T10:53:18.119Z,38.91
2017-05-31T10:54:18.492Z,39.37
2017-05-31T10:55:18.446Z,39.28
2017-05-31T10:56:18.508Z,39.28
2017-05-31T10:57:18.528Z,39.49
2017-05-31T10:58:18.215Z,39.59
2017-05-31T10:59:18.172Z,39.29
2017-05-31T11:00:18.241Z,39.29
2017-05-31T11:01:18.243Z,39.28
2017-05-31T11:02:18.564Z,39.39
2017-05-31T11:03:18.573Z,39.29
2017-05-31T11:04:18.221Z,39.49
2017-05-31T11:05:18.546Z,39.2
2017-05-31T11:06:18.567Z,39.2
2017-05-31T11:07:18.564Z,39.29
2017-05-31T11:08:18.263Z,39.29
2017-05-31T11:09:18.586Z,39.49
2017-05-31T11:10:18.591Z,39.2
2017-05-31T11:11:18.658Z,39.39
2017-05-31T11:12:18.614Z,39.39
2017-05-31T11:13:18.621Z,39.29
2017-05-31T11:14:18.636Z,38.91
2017-05-31T11:15:18.652Z,38.91
2017-05-31T11:16:18.658Z,38.62
2017-05-31T11:17:18.669Z,38.44
2017-05-31T11:18:18.686Z,38.05
2017-05-31T11:19:18.791Z,38.44
2017-05-31T11:20:18.803Z,38.71
2017-05-31T11:21:18.399Z,39.03
2017-05-31T11:22:18.417Z,38.44
2017-05-31T11:23:18.738Z,38.73
2017-05-31T11:24:18.764Z,39.03
2017-05-31T11:25:18.754Z,38.73
2017-05-31T11:26:18.763Z,38.93
2017-05-31T11:27:18.762Z,38.73
2017-05-31T11:28:18.461Z,38.93
2017-05-31T11:29:18.472Z,38.93
2017-05-31T11:30:18.794Z,38.73
2017-05-31T11:31:18.802Z,38.83
2017-05-31T11:32:18.812Z,38.54
2017-05-31T11:33:18.821Z,38.44
2017-05-31T11:34:18.831Z,38.64
2017-05-31T11:35:18.841Z,38.44
2017-05-31T11:36:18.542Z,37.85
2017-05-31T11:37:18.861Z,38.17
2017-05-31T11:38:18.920Z,38.15
2017-05-31T11:39:18.882Z,38.73
2017-05-31T11:40:18.968Z,38.44
2017-05-31T11:41:18.901Z,38.15
2017-05-31T11:42:18.913Z,38.24
2017-05-31T11:43:18.921Z,38.54
2017-05-31T11:44:18.933Z,38.15
2017-05-31T11:45:18.942Z,38.44
2017-05-31T11:46:18.953Z,38.24
2017-05-31T11:47:18.650Z,38.54
2017-05-31T11:48:18.972Z,37.95
2017-05-31T11:49:18.980Z,38.15
2017-05-31T11:50:18.735Z,38.05
2017-05-31T11:51:19.050Z,38.05
2017-05-31T11:52:19.011Z,37.87
2017-05-31T11:53:19.023Z,37.95
2017-05-31T11:54:19.035Z,38.44
2017-05-31T11:55:19.047Z,38.54
2017-05-31T11:56:19.052Z,38.17
2017-05-31T11:57:19.074Z,38.24
2017-05-31T11:58:19.071Z,38.44
2017-05-31T11:59:19.081Z,38.65
2017-05-31T12:00:19.094Z,38.26
2017-05-31T12:01:19.103Z,38.17
2017-05-31T12:02:19.129Z,38.26
2017-05-31T12:03:19.172Z,38.17
2017-05-31T12:04:18.820Z,38.17
2017-05-31T12:05:19.158Z,37.68
2017-05-31T12:06:19.152Z,38.05
2017-05-31T12:07:19.163Z,38.24
2017-05-31T12:08:18.863Z,38.34
2017-05-31T12:09:19.185Z,38.46
2017-05-31T12:10:18.931Z,38.44
2017-05-31T12:11:18.893Z,38.17
2017-05-31T12:12:18.955Z,38.36
2017-05-31T12:13:19.227Z,37.77
2017-05-31T12:14:18.925Z,38.26
2017-05-31T12:15:19.246Z,38.07
2017-05-31T12:16:19.258Z,38.24
2017-05-31T12:17:18.961Z,38.56
2017-05-31T12:18:19.276Z,38.17
2017-05-31T12:19:18.977Z,37.97
2017-05-31T12:20:19.296Z,38.17
2017-05-31T12:21:19.357Z,38.26
2017-05-31T12:22:19.321Z,37.68
2017-05-31T12:23:19.068Z,38.07
2017-05-31T12:24:19.336Z,38.26
2017-05-31T12:25:19.041Z,38.17
2017-05-31T12:26:19.361Z,37.87
2017-05-31T12:27:19.374Z,37.97
2017-05-31T12:28:19.380Z,38.36
2017-05-31T12:29:19.391Z,37.87
2017-05-31T12:30:19.398Z,38.36
2017-05-31T12:31:19.108Z,38.17
2017-05-31T12:32:19.422Z,38.07
2017-05-31T12:33:19.126Z,38.26
2017-05-31T12:34:19.128Z,37.77
2017-05-31T12:35:19.450Z,38.07
2017-05-31T12:36:19.151Z,38.07
2017-05-31T12:37:19.161Z,37.97
2017-05-31T12:38:19.217Z,38.07
2017-05-31T12:39:19.179Z,37.58
2017-05-31T12:40:19.198Z,37.97
2017-05-31T12:41:19.201Z,38.07
2017-05-31T12:42:19.210Z,37.87
2017-05-31T12:43:19.222Z,37.97
2017-05-31T12:44:19.541Z,38.07
2017-05-31T12:45:19.242Z,37.97
2017-05-31T12:46:19.560Z,38.36
2017-05-31T12:47:19.622Z,37.87
2017-05-31T12:48:19.583Z,37.68
2017-05-31T12:49:19.592Z,37.77
2017-05-31T12:50:19.654Z,37.48
2017-05-31T12:51:19.613Z,37.39
2017-05-31T12:52:19.626Z,37
2017-05-31T12:53:19.632Z,37.39
2017-05-31T12:54:19.692Z,37.46
2017-05-31T12:55:19.343Z,37.37
2017-05-31T12:56:19.352Z,36.98